createdAt,value
2018-12-15T07:54:14.127Z,46.73
2018-12-15T07:56:42.358Z,42.43
2018-12-15T07:59:10.574Z,44.07
2018-12-15T08:01:38.819Z,42.37
2018-12-15T08:04:11.474Z,44.67
2018-12-15T08:06:39.819Z,40.70
2018-12-15T08:09:08.147Z,48.70
2018-12-15T08:11:41.700Z,43.97
2018-12-15T08:14:10.826Z,44.40
2018-12-15T08:16:39.227Z,43.63
2018-12-15T08:19:07.463Z,42.37
2018-12-15T08:21:35.783Z,44.93
2018-12-15T08:24:04.086Z,42.53
2018-12-15T08:26:32.406Z,41.47
2018-12-15T08:29:00.708Z,39.57
2018-12-15T08:31:28.946Z,54.67
2018-12-15T08:33:57.175Z,52.37
2018-12-15T08:36:25.498Z,51.53
2018-12-15T08:38:53.736Z,41.63
2018-12-15T08:41:21.969Z,45.93
2018-12-15T08:43:50.207Z,45.27
2018-12-15T08:46:18.483Z,40.07
2018-12-15T08:48:46.711Z,42.23
2018-12-15T08:51:15.232Z,42.67
2018-12-15T08:53:43.459Z,45.13
2018-12-15T08:56:11.695Z,49.87
2018-12-15T08:58:39.919Z,41.47
2018-12-15T09:01:08.170Z,41.33
2018-12-15T09:03:36.388Z,40.37
2018-12-15T09:06:04.683Z,44.87
2018-12-15T09:08:32.931Z,50.03
2018-12-15T09:11:01.228Z,51.63
2018-12-15T09:13:29.459Z,45.90
2018-12-15T09:15:57.670Z,46.17
2018-12-15T09:18:25.991Z,43.50
2018-12-15T09:20:54.224Z,49.67
2018-12-15T09:23:22.464Z,42.47
2018-12-15T09:25:50.683Z,44.40
2018-12-15T09:28:19.005Z,50.00
2018-12-15T09:30:47.219Z,41.63
2018-12-15T09:33:15.463Z,41.30
2018-12-15T09:35:43.674Z,44.17
2018-12-15T09:38:11.902Z,41.30
2018-12-15T09:40:40.118Z,42.57
2018-12-15T09:43:08.427Z,47.30
2018-12-15T09:45:36.647Z,45.97
2018-12-15T09:48:05.042Z,40.00
2018-12-15T09:50:33.555Z,43.17
2018-12-15T09:53:01.865Z,41.07
2018-12-15T09:55:30.087Z,43.20
2018-12-15T09:57:58.443Z,44.77
2018-12-15T10:00:26.657Z,41.53
2018-12-15T10:02:54.868Z,43.13
2018-12-15T10:05:23.267Z,42.17
2018-12-15T10:07:51.642Z,40.03
2018-12-15T10:10:19.885Z,41.10
2018-12-15T10:12:48.100Z,39.57
2018-12-15T10:15:16.342Z,37.57
2018-12-15T10:17:44.551Z,43.87
2018-12-15T10:20:12.871Z,39.50
2018-12-15T10:22:41.101Z,40.50
2018-12-15T10:25:09.334Z,41.03
2018-12-15T10:27:37.631Z,42.57
2018-12-15T10:30:11.803Z,45.13
2018-12-15T10:32:45.352Z,42.07
2018-12-15T10:35:13.692Z,43.77
2018-12-15T10:37:41.982Z,39.33
2018-12-15T10:40:10.300Z,39.37
2018-12-15T10:42:38.519Z,43.30
2018-12-15T10:45:06.914Z,40.80
2018-12-15T10:47:35.287Z,39.63
2018-12-15T10:50:03.967Z,40.47
2018-12-15T10:52:32.199Z,39.03
2018-12-15T10:55:00.515Z,43.80
2018-12-15T10:57:28.829Z,41.27
2018-12-15T10:59:57.055Z,41.53
2018-12-15T11:02:25.293Z,42.43
2018-12-15T11:04:53.531Z,43.90
2018-12-15T11:07:21.838Z,43.53
2018-12-15T11:09:50.083Z,44.13
2018-12-15T11:12:18.319Z,51.40
2018-12-15T11:14:46.560Z,46.60
2018-12-15T11:17:14.854Z,39.90
2018-12-15T11:19:43.101Z,42.10
2018-12-15T11:22:11.331Z,37.77
2018-12-15T11:24:39.569Z,34.77
2018-12-15T11:27:07.787Z,38.70
2018-12-15T11:29:36.036Z,44.33
2018-12-15T11:32:04.259Z,42.37
2018-12-15T11:34:32.478Z,41.03
2018-12-15T11:37:00.710Z,42.00
2018-12-15T11:39:28.931Z,40.90
2018-12-15T11:41:57.168Z,43.00
2018-12-15T11:44:25.386Z,40.17
2018-12-15T11:46:53.702Z,39.97
2018-12-15T11:49:21.920Z,37.20
2018-12-15T11:51:50.163Z,44.63
2018-12-15T11:54:18.455Z,43.00
2018-12-15T11:56:46.702Z,38.93
2018-12-15T11:59:14.938Z,42.40
2018-12-15T12:01:43.259Z,37.67
2018-12-15T12:04:11.488Z,37.83
2018-12-15T12:06:39.739Z,34.60
2018-12-15T12:09:07.960Z,36.83
2018-12-15T12:11:36.191Z,38.10
2018-12-15T12:14:04.486Z,36.97
2018-12-15T12:16:33.878Z,42.53
2018-12-15T12:19:02.171Z,33.90
2018-12-15T12:21:30.409Z,37.00
2018-12-15T12:23:58.651Z,38.20
2018-12-15T12:26:26.904Z,32.17
2018-12-15T12:28:55.118Z,38.07
2018-12-15T12:31:23.656Z,40.20
2018-12-15T12:33:51.952Z,38.43
2018-12-15T12:36:20.172Z,42.47
2018-12-15T12:38:48.407Z,36.37
2018-12-15T12:41:16.645Z,41.53
2018-12-15T12:43:44.963Z,39.37
2018-12-15T12:46:13.188Z,36.53
2018-12-15T12:48:41.419Z,44.63
2018-12-15T12:51:09.631Z,36.20
2018-12-15T12:53:37.859Z,38.80
2018-12-15T12:56:06.079Z,44.03
2018-12-15T12:58:34.412Z,40.07
2018-12-15T13:01:02.707Z,41.53
2018-12-15T13:03:30.944Z,40.57
2018-12-15T13:05:59.255Z,42.13
2018-12-15T13:08:27.591Z,39.70
2018-12-15T13:10:55.790Z,46.03
2018-12-15T13:13:24.111Z,40.07
2018-12-15T13:15:52.325Z,39.13
2018-12-15T13:18:20.562Z,46.20
2018-12-15T13:20:48.787Z,41.97
2018-12-15T13:23:17.037Z,45.83
2018-12-15T13:25:45.247Z,150.20
2018-12-15T13:28:13.493Z,77.77
2018-12-15T13:30:41.712Z,51.03
2018-12-15T13:33:21.196Z,41.23
2018-12-15T13:35:49.419Z,42.60
2018-12-15T13:38:17.731Z,46.30
2018-12-15T13:40:45.938Z,44.00
2018-12-15T13:43:14.183Z,48.00
2018-12-15T13:45:42.403Z,45.07
2018-12-15T13:48:10.790Z,48.47
2018-12-15T13:50:39.008Z,46.17
2018-12-15T13:53:07.320Z,45.07
2018-12-15T13:55:35.530Z,50.77
2018-12-15T13:58:03.860Z,48.13
2018-12-15T14:00:32.071Z,48.80
2018-12-15T14:03:00.287Z,48.70
2018-12-15T14:05:28.519Z,47.90
2018-12-15T14:07:56.746Z,51.83
2018-12-15T14:10:24.978Z,49.93
2018-12-15T14:12:53.188Z,53.37
2018-12-15T14:15:21.428Z,51.57
2018-12-15T14:17:49.638Z,53.60
2018-12-15T14:20:17.872Z,53.20
2018-12-15T14:22:46.095Z,56.50
2018-12-15T14:25:14.339Z,54.07
2018-12-15T14:27:42.559Z,54.43
2018-12-15T14:30:10.879Z,52.67
2018-12-15T14:32:39.087Z,57.90
2018-12-15T14:35:07.594Z,54.80
2018-12-15T14:37:35.803Z,56.93
2018-12-15T14:40:04.447Z,61.17
2018-12-15T14:42:32.671Z,59.47
2018-12-15T14:45:00.897Z,59.13
2018-12-15T14:47:29.124Z,55.13
2018-12-15T14:49:57.347Z,60.13
2018-12-15T14:52:25.562Z,64.73
2018-12-15T14:54:53.891Z,61.90
2018-12-15T14:57:25.159Z,66.57
2018-12-15T14:59:53.734Z,60.17
2018-12-15T15:02:21.983Z,66.60
2018-12-15T15:04:50.371Z,58.10
2018-12-15T15:07:18.603Z,67.33
2018-12-15T15:09:46.855Z,68.40
2018-12-15T15:12:15.078Z,57.00
2018-12-15T15:14:43.336Z,62.67
2018-12-15T15:17:11.583Z,67.10
2018-12-15T15:19:39.798Z,60.93
2018-12-15T15:22:08.104Z,62.00
2018-12-15T15:24:36.316Z,62.43
2018-12-15T15:27:04.556Z,62.40
2018-12-15T15:29:32.884Z,58.80
2018-12-15T15:32:01.115Z,69.73
2018-12-15T15:34:29.335Z,61.57
2018-12-15T15:36:57.571Z,64.23
2018-12-15T15:39:25.791Z,66.50
2018-12-15T15:41:54.028Z,65.40
2018-12-15T15:44:22.244Z,64.03
2018-12-15T15:46:50.548Z,66.27
2018-12-15T15:49:18.843Z,65.47
2018-12-15T15:51:47.155Z,69.27
2018-12-15T15:54:15.810Z,66.57
2018-12-15T15:56:44.039Z,75.80
2018-12-15T15:59:12.278Z,68.70
2018-12-15T16:01:40.671Z,68.90
2018-12-15T16:04:08.880Z,73.50
2018-12-15T16:06:37.240Z,68.70
2018-12-15T16:09:08.831Z,71.33
2018-12-15T16:11:37.354Z,69.33
2018-12-15T16:14:05.568Z,61.97
2018-12-15T16:16:34.751Z,68.37
2018-12-15T16:19:03.300Z,77.80
2018-12-15T16:21:31.542Z,72.73
2018-12-15T16:23:59.833Z,81.87
2018-12-15T16:26:28.065Z,80.57
2018-12-15T16:28:56.342Z,85.27
2018-12-15T16:31:24.882Z,70.37
2018-12-15T16:33:53.178Z,73.87
2018-12-15T16:36:21.404Z,71.00
2018-12-15T16:38:49.647Z,77.33
2018-12-15T16:41:17.895Z,72.37
2018-12-15T16:43:46.116Z,70.40
2018-12-15T16:46:14.359Z,74.53
2018-12-15T16:48:42.575Z,83.27
2018-12-15T16:51:10.794Z,90.17
2018-12-15T16:53:39.104Z,81.20
2018-12-15T16:56:07.398Z,82.67
2018-12-15T16:58:35.653Z,82.27
2018-12-15T17:01:04.119Z,79.53
2018-12-15T17:03:32.345Z,86.93
2018-12-15T17:06:00.644Z,87.30
2018-12-15T17:08:28.895Z,85.97
2018-12-15T17:10:57.200Z,77.90
2018-12-15T17:13:25.511Z,80.53
2018-12-15T17:15:53.790Z,86.33
2018-12-15T17:18:22.099Z,86.57
2018-12-15T17:20:56.462Z,88.57
2018-12-15T17:23:20.651Z,81.40
2018-12-15T17:25:48.955Z,81.77
2018-12-15T17:28:17.190Z,84.83
2018-12-15T17:30:45.410Z,85.03
2018-12-15T17:33:13.651Z,83.17
2018-12-15T17:35:41.875Z,90.97
2018-12-15T17:38:10.117Z,85.10
2018-12-15T17:40:38.416Z,78.20
2018-12-15T17:43:06.656Z,84.07
2018-12-15T17:45:35.030Z,84.60
2018-12-15T17:48:03.334Z,89.70
2018-12-15T17:50:31.631Z,96.63
2018-12-15T17:53:00.037Z,89.37
2018-12-15T17:55:28.238Z,83.00
2018-12-15T17:57:56.502Z,88.47
2018-12-15T18:00:24.908Z,89.77
2018-12-15T18:02:53.135Z,87.10
2018-12-15T18:05:21.363Z,94.57
2018-12-15T18:07:49.618Z,94.90
2018-12-15T18:10:17.918Z,109.53
2018-12-15T18:12:46.154Z,129.07
2018-12-15T18:15:14.379Z,107.27
2018-12-15T18:17:42.623Z,95.80
2018-12-15T18:20:10.947Z,97.13
2018-12-15T18:22:39.185Z,95.23
2018-12-15T18:25:07.801Z,89.63
2018-12-15T18:27:36.051Z,93.97
2018-12-15T18:30:05.699Z,94.53
2018-12-15T18:32:33.938Z,112.17
2018-12-15T18:35:02.168Z,112.57
2018-12-15T18:37:30.406Z,109.23
2018-12-15T18:39:58.639Z,110.80
2018-12-15T18:42:26.955Z,98.60
2018-12-15T18:44:55.194Z,100.50
2018-12-15T18:47:23.413Z,87.37
2018-12-15T18:49:51.650Z,88.87
2018-12-15T18:52:19.880Z,93.70
2018-12-15T18:57:22.567Z,86.53
2018-12-15T18:59:50.807Z,92.50
2018-12-15T19:02:19.201Z,93.37
2018-12-15T19:04:47.518Z,88.03
2018-12-15T19:07:15.765Z,95.00
2018-12-15T19:09:44.004Z,88.80
2018-12-15T19:12:12.222Z,97.67
2018-12-15T19:14:40.546Z,92.10
2018-12-15T19:17:08.948Z,100.73
2018-12-15T19:19:37.187Z,97.30
2018-12-15T19:22:05.406Z,95.10
2018-12-15T19:24:33.651Z,104.53
2018-12-15T19:27:01.965Z,89.40
2018-12-15T19:29:30.279Z,94.17
2018-12-15T19:31:58.490Z,97.97
2018-12-15T19:34:26.718Z,90.67
2018-12-15T19:36:54.927Z,92.27
2018-12-15T19:39:23.535Z,91.87
2018-12-15T19:41:51.747Z,91.83
2018-12-15T19:44:19.978Z,103.67
2018-12-15T19:46:48.195Z,96.70
2018-12-15T19:49:16.427Z,93.37
2018-12-15T19:51:44.646Z,102.33
2018-12-15T19:54:12.874Z,100.60
2018-12-15T19:56:41.094Z,97.23
2018-12-15T19:59:13.571Z,93.30
2018-12-15T20:01:42.202Z,100.80
2018-12-15T20:04:10.433Z,92.67
2018-12-15T20:06:38.773Z,97.07
2018-12-15T20:09:09.699Z,91.03
2018-12-15T20:11:38.219Z,105.70
2018-12-15T20:14:06.463Z,97.10
2018-12-15T20:16:34.754Z,102.00
2018-12-15T20:19:03.062Z,98.77
2018-12-15T20:21:35.945Z,94.73
2018-12-15T20:24:01.534Z,100.13
2018-12-15T20:26:29.745Z,102.53
2018-12-15T20:28:58.068Z,104.80
2018-12-15T20:31:26.278Z,97.70
2018-12-15T20:33:54.518Z,107.27
2018-12-15T20:36:22.728Z,95.37
2018-12-15T20:38:50.964Z,98.63
2018-12-15T20:41:19.333Z,93.13
2018-12-15T20:43:47.636Z,105.17
2018-12-15T20:46:15.885Z,104.93
2018-12-15T20:48:44.189Z,98.63
2018-12-15T20:51:12.500Z,101.10
2018-12-15T20:53:40.713Z,92.87
2018-12-15T20:56:09.023Z,96.13
2018-12-15T20:58:37.348Z,92.40
2018-12-15T21:01:05.667Z,101.33
2018-12-15T21:03:33.895Z,103.83
2018-12-15T21:06:02.132Z,97.47
2018-12-15T21:08:30.442Z,107.47
2018-12-15T21:10:58.670Z,96.80
2018-12-15T21:13:26.959Z,93.83
2018-12-15T21:15:57.647Z,91.23
2018-12-15T21:18:26.312Z,101.10
2018-12-15T21:20:54.639Z,98.07
